createdAt,value
2022-09-24T00:00:55.916Z,1006.24
2022-09-24T00:01:55.978Z,1006.26
2022-09-24T00:02:55.908Z,1006.28
2022-09-24T00:03:55.860Z,1006.28
2022-09-24T00:04:55.870Z,1006.29
2022-09-24T00:05:55.828Z,1006.32
2022-09-24T00:06:55.807Z,1006.32
2022-09-24T00:07:55.790Z,1006.31
2022-09-24T00:08:55.782Z,1006.30
2022-09-24T00:09:55.756Z,1006.29
2022-09-24T00:10:55.744Z,1006.27
2022-09-24T00:11:55.723Z,1006.28
2022-09-24T00:12:55.704Z,1006.26
2022-09-24T00:13:55.690Z,1006.28
2022-09-24T00:14:55.673Z,1006.27
2022-09-24T00:15:55.678Z,1006.28
2022-09-24T00:16:55.638Z,1006.25
2022-09-24T00:17:55.614Z,1006.30
2022-09-24T00:18:55.601Z,1006.28
2022-09-24T00:19:55.584Z,1006.28
2022-09-24T00:20:55.583Z,1006.26
2022-09-24T00:21:55.542Z,1006.26
2022-09-24T00:22:55.524Z,1006.27
2022-09-24T00:23:55.506Z,1006.26
2022-09-24T00:24:55.492Z,1006.25
2022-09-24T00:25:55.475Z,1006.29
2022-09-24T00:26:55.453Z,1006.25
2022-09-24T00:27:55.437Z,1006.26
2022-09-24T00:28:55.419Z,1006.28
2022-09-24T00:29:55.400Z,1006.26
2022-09-24T00:30:55.426Z,1006.26
2022-09-24T00:31:55.473Z,1006.28
2022-09-24T00:32:55.355Z,1006.28
2022-09-24T00:33:55.333Z,1006.32
2022-09-24T00:34:55.323Z,1006.30
2022-09-24T00:35:55.298Z,1006.30
2022-09-24T00:36:55.301Z,1006.30
2022-09-24T00:37:55.261Z,1006.29
2022-09-24T00:38:55.256Z,1006.27
2022-09-24T00:39:55.226Z,1006.29
2022-09-24T00:40:55.210Z,1006.31
2022-09-24T00:41:55.191Z,1006.33
2022-09-24T00:42:55.174Z,1006.29
2022-09-24T00:43:55.157Z,1006.28
2022-09-24T00:44:55.139Z,1006.29
2022-09-24T00:45:55.129Z,1006.32
2022-09-24T00:46:55.229Z,1006.33
2022-09-24T00:47:55.089Z,1006.34
2022-09-24T00:48:55.066Z,1006.29
2022-09-24T00:49:55.048Z,1006.28
2022-09-24T00:50:55.037Z,1006.27
2022-09-24T00:51:55.013Z,1006.23
2022-09-24T00:52:55.017Z,1006.21
2022-09-24T00:53:54.980Z,1006.19
2022-09-24T00:54:54.968Z,1006.21
2022-09-24T00:55:54.945Z,1006.18
2022-09-24T00:56:54.933Z,1006.13
2022-09-24T00:57:54.912Z,1006.14
2022-09-24T00:58:54.893Z,1006.11
2022-09-24T00:59:54.881Z,1006.15
2022-09-24T01:00:54.919Z,1006.12
2022-09-24T01:01:54.877Z,1006.16
2022-09-24T01:02:54.826Z,1006.13
2022-09-24T01:03:54.809Z,1006.12
2022-09-24T01:04:56.552Z,1006.12
2022-09-24T01:05:54.771Z,1006.13
2022-09-24T01:06:54.748Z,1006.16
2022-09-24T01:07:54.734Z,1006.15
2022-09-24T01:08:54.744Z,1006.16
2022-09-24T01:09:54.702Z,1006.13
2022-09-24T01:10:54.691Z,1006.16
2022-09-24T01:11:54.662Z,1006.14
2022-09-24T01:12:54.646Z,1006.18
2022-09-24T01:13:54.629Z,1006.16
2022-09-24T01:14:54.621Z,1006.15
2022-09-24T01:15:54.676Z,1006.15
2022-09-24T01:16:54.579Z,1006.15
2022-09-24T01:17:54.562Z,1006.12
2022-09-24T01:18:54.540Z,1006.12
2022-09-24T01:19:54.528Z,1006.13
2022-09-24T01:20:54.508Z,1006.14
2022-09-24T01:21:54.487Z,1006.15
2022-09-24T01:22:54.475Z,1006.13
2022-09-24T01:23:54.452Z,1006.16
2022-09-24T01:24:54.457Z,1006.13
2022-09-24T01:25:54.415Z,1006.12
2022-09-24T01:26:54.396Z,1006.14
2022-09-24T01:27:54.384Z,1006.10
2022-09-24T01:28:54.369Z,1006.11
2022-09-24T01:29:54.348Z,1006.12
2022-09-24T01:30:54.330Z,1006.12
2022-09-24T01:31:54.364Z,1006.12
2022-09-24T01:32:54.295Z,1006.14
2022-09-24T01:33:54.278Z,1006.09
2022-09-24T01:34:54.258Z,1006.11
2022-09-24T01:35:54.242Z,1006.08
2022-09-24T01:36:54.233Z,1006.13
2022-09-24T01:37:54.209Z,1006.12
2022-09-24T01:38:54.190Z,1006.10
2022-09-24T01:39:54.170Z,1006.06
2022-09-24T01:40:54.270Z,1006.08
2022-09-24T01:41:54.140Z,1006.08
2022-09-24T01:42:54.118Z,1006.13
2022-09-24T01:43:54.098Z,1006.08
2022-09-24T01:44:54.080Z,1006.14
2022-09-24T01:45:54.065Z,1006.13
2022-09-24T01:46:54.094Z,1006.09
2022-09-24T01:47:54.031Z,1006.11
2022-09-24T01:48:54.013Z,1006.02
2022-09-24T01:49:53.998Z,1006.02
2022-09-24T01:50:53.975Z,1005.99
2022-09-24T01:51:53.957Z,1006.00
2022-09-24T01:52:53.945Z,1006.04
2022-09-24T01:53:53.919Z,1006.04
2022-09-24T01:54:53.904Z,1006.01
2022-09-24T01:55:53.891Z,1005.98
2022-09-24T01:56:53.891Z,1005.95
2022-09-24T01:57:53.850Z,1005.96
2022-09-24T01:58:53.831Z,1005.95
2022-09-24T01:59:53.813Z,1005.90
2022-09-24T02:00:53.857Z,1005.86
2022-09-24T02:01:53.884Z,1005.87
2022-09-24T02:02:53.761Z,1005.81
2022-09-24T02:03:53.745Z,1005.82
2022-09-24T02:04:53.731Z,1005.80
2022-09-24T02:05:53.708Z,1005.75
2022-09-24T02:06:53.692Z,1005.72
2022-09-24T02:07:53.674Z,1005.72
2022-09-24T02:08:53.656Z,1005.72
2022-09-24T02:09:53.641Z,1005.70
2022-09-24T02:10:53.619Z,1005.73
2022-09-24T02:11:53.601Z,1005.78
2022-09-24T02:12:53.600Z,1005.75
2022-09-24T02:13:53.567Z,1005.70
2022-09-24T02:14:53.549Z,1005.71
2022-09-24T02:15:53.593Z,1005.69
2022-09-24T02:16:53.514Z,1005.70
2022-09-24T02:17:53.489Z,1005.68
2022-09-24T02:18:53.473Z,1005.67
2022-09-24T02:19:53.460Z,1005.70
2022-09-24T02:20:53.443Z,1005.70
2022-09-24T02:21:53.425Z,1005.67
2022-09-24T02:22:53.405Z,1005.65
2022-09-24T02:23:53.397Z,1005.65
2022-09-24T02:24:53.370Z,1005.67
2022-09-24T02:25:53.348Z,1005.66
2022-09-24T02:26:53.338Z,1005.65
2022-09-24T02:27:53.315Z,1005.66
2022-09-24T02:28:53.319Z,1005.65
2022-09-24T02:29:53.282Z,1005.62
2022-09-24T02:30:53.261Z,1005.65
2022-09-24T02:31:53.343Z,1005.63
2022-09-24T02:32:53.230Z,1005.65
2022-09-24T02:33:53.212Z,1005.63
2022-09-24T02:34:53.189Z,1005.65
2022-09-24T02:35:53.179Z,1005.66
2022-09-24T02:36:53.156Z,1005.65
2022-09-24T02:37:53.131Z,1005.66
2022-09-24T02:38:53.124Z,1005.66
2022-09-24T02:39:53.093Z,1005.66
2022-09-24T02:40:53.144Z,1005.66
2022-09-24T02:41:53.057Z,1005.66
2022-09-24T02:42:53.042Z,1005.64
2022-09-24T02:43:53.036Z,1005.66
2022-09-24T02:44:53.029Z,1005.63
2022-09-24T02:45:52.987Z,1005.62
2022-09-24T02:46:53.049Z,1005.61
2022-09-24T02:47:52.952Z,1005.59
2022-09-24T02:48:52.936Z,1005.62
2022-09-24T02:49:52.919Z,1005.67
2022-09-24T02:50:52.896Z,1005.65
2022-09-24T02:51:52.885Z,1005.64
2022-09-24T02:52:52.866Z,1005.64
2022-09-24T02:53:52.849Z,1005.64
2022-09-24T02:54:52.832Z,1005.60
2022-09-24T02:55:52.809Z,1005.64
2022-09-24T02:56:52.796Z,1005.62
2022-09-24T02:57:52.772Z,1005.60
2022-09-24T02:58:52.760Z,1005.62
2022-09-24T02:59:52.740Z,1005.61
2022-09-24T03:00:52.740Z,1005.61
2022-09-24T03:01:52.818Z,1005.61
2022-09-24T03:02:52.770Z,1005.59
2022-09-24T03:03:52.667Z,1005.54
2022-09-24T03:04:52.649Z,1005.54
2022-09-24T03:05:52.634Z,1005.56
2022-09-24T03:06:52.613Z,1005.52
2022-09-24T03:07:52.595Z,1005.51
2022-09-24T03:08:52.577Z,1005.53
2022-09-24T03:09:52.561Z,1005.50
2022-09-24T03:10:52.546Z,1005.52
2022-09-24T03:11:52.522Z,1005.50
2022-09-24T03:12:52.513Z,1005.54
2022-09-24T03:13:52.493Z,1005.52
2022-09-24T03:14:52.468Z,1005.52
2022-09-24T03:15:52.533Z,1005.55
2022-09-24T03:16:52.457Z,1005.52
2022-09-24T03:17:52.415Z,1005.46
2022-09-24T03:18:52.396Z,1005.48
2022-09-24T03:19:52.380Z,1005.49
2022-09-24T03:20:52.361Z,1005.46
2022-09-24T03:21:52.342Z,1005.47
2022-09-24T03:22:52.325Z,1005.45
2022-09-24T03:23:52.305Z,1005.47
2022-09-24T03:24:52.293Z,1005.46
2022-09-24T03:25:52.273Z,1005.47
2022-09-24T03:26:52.262Z,1005.50
2022-09-24T03:27:52.235Z,1005.48
2022-09-24T03:28:52.221Z,1005.47
2022-09-24T03:29:52.195Z,1005.49
2022-09-24T03:30:52.183Z,1005.48
2022-09-24T03:31:52.258Z,1005.46
2022-09-24T03:32:52.166Z,1005.47
2022-09-24T03:33:52.128Z,1005.47
2022-09-24T03:34:52.116Z,1005.47
2022-09-24T03:35:52.092Z,1005.46
2022-09-24T03:36:52.072Z,1005.46
2022-09-24T03:37:52.052Z,1005.44
2022-09-24T03:38:52.039Z,1005.44
2022-09-24T03:39:52.015Z,1005.42
2022-09-24T03:40:52.104Z,1005.44
2022-09-24T03:41:51.983Z,1005.43
2022-09-24T03:42:51.963Z,1005.41
2022-09-24T03:43:51.945Z,1005.43
2022-09-24T03:44:51.927Z,1005.39
2022-09-24T03:45:51.908Z,1005.36
2022-09-24T03:46:52.007Z,1005.35
2022-09-24T03:47:51.873Z,1005.33
2022-09-24T03:48:51.966Z,1005.32
2022-09-24T03:49:51.835Z,1005.32
2022-09-24T03:50:51.817Z,1005.32
2022-09-24T03:51:51.822Z,1005.35
2022-09-24T03:52:51.786Z,1005.36
2022-09-24T03:53:51.767Z,1005.34
2022-09-24T03:54:51.745Z,1005.33
2022-09-24T03:55:51.729Z,1005.33
2022-09-24T03:56:51.711Z,1005.34
2022-09-24T03:57:51.687Z,1005.33
2022-09-24T03:58:51.675Z,1005.32
2022-09-24T03:59:51.659Z,1005.29
2022-09-24T04:00:51.643Z,1005.28
2022-09-24T04:01:51.700Z,1005.30
2022-09-24T04:02:51.733Z,1005.29
2022-09-24T04:03:51.585Z,1005.28
2022-09-24T04:04:51.589Z,1005.27
2022-09-24T04:05:51.544Z,1005.29
2022-09-24T04:06:51.533Z,1005.30
2022-09-24T04:07:51.513Z,1005.28
2022-09-24T04:08:51.498Z,1005.29
2022-09-24T04:09:51.469Z,1005.30
2022-09-24T04:10:51.455Z,1005.32
2022-09-24T04:11:51.455Z,1005.29
2022-09-24T04:12:51.414Z,1005.28
2022-09-24T04:13:51.415Z,1005.27
2022-09-24T04:14:51.383Z,1005.24
2022-09-24T04:15:51.411Z,1005.22
2022-09-24T04:16:51.345Z,1005.22
2022-09-24T04:17:51.329Z,1005.27
2022-09-24T04:18:51.312Z,1005.21
2022-09-24T04:19:51.293Z,1005.26
2022-09-24T04:20:51.298Z,1005.21
2022-09-24T04:21:51.250Z,1005.20
2022-09-24T04:22:51.238Z,1005.18
2022-09-24T04:23:51.217Z,1005.20
2022-09-24T04:24:51.198Z,1005.18
2022-09-24T04:25:51.183Z,1005.18
2022-09-24T04:26:51.165Z,1005.19
2022-09-24T04:27:51.143Z,1005.19
2022-09-24T04:28:51.123Z,1005.17
2022-09-24T04:29:51.106Z,1005.15
2022-09-24T04:30:51.207Z,1005.15
2022-09-24T04:31:51.144Z,1005.15
2022-09-24T04:32:51.055Z,1005.12
2022-09-24T04:33:51.029Z,1005.12
2022-09-24T04:34:51.017Z,1005.13
2022-09-24T04:35:50.997Z,1005.09
2022-09-24T04:36:51.002Z,1005.09
2022-09-24T04:37:50.967Z,1005.15
2022-09-24T04:38:50.946Z,1005.09
2022-09-24T04:39:50.923Z,1005.10
2022-09-24T04:40:50.959Z,1005.08
2022-09-24T04:41:50.891Z,1005.07
2022-09-24T04:42:50.875Z,1005.07
2022-09-24T04:43:50.853Z,1005.08
2022-09-24T04:44:55.905Z,1005.08
2022-09-24T04:45:50.816Z,1005.07
2022-09-24T04:46:50.862Z,1005.08
2022-09-24T04:47:50.778Z,1005.07
2022-09-24T04:48:50.761Z,1005.05
2022-09-24T04:49:50.741Z,1005.06
2022-09-24T04:50:50.723Z,1005.05
2022-09-24T04:51:50.704Z,1005.03
2022-09-24T04:52:50.709Z,1005.02
2022-09-24T04:53:50.670Z,1005.04
2022-09-24T04:54:50.650Z,1005.04
2022-09-24T04:55:50.628Z,1005.06
2022-09-24T04:56:50.616Z,1005.05
2022-09-24T04:57:50.593Z,1005.09
2022-09-24T04:58:50.583Z,1005.07
2022-09-24T04:59:50.558Z,1005.05
2022-09-24T05:00:50.540Z,1005.07
2022-09-24T05:01:50.681Z,1005.13
2022-09-24T05:02:50.643Z,1005.07
2022-09-24T05:03:50.484Z,1005.07
2022-09-24T05:04:50.465Z,1005.10
2022-09-24T05:05:50.457Z,1005.13
2022-09-24T05:06:50.429Z,1005.09
2022-09-24T05:07:50.412Z,1005.14
2022-09-24T05:08:50.416Z,1005.15
2022-09-24T05:09:50.381Z,1005.10
2022-09-24T05:10:50.356Z,1005.15
2022-09-24T05:11:50.337Z,1005.12
2022-09-24T05:12:50.316Z,1005.10
2022-09-24T05:13:50.301Z,1005.20
2022-09-24T05:14:50.282Z,1005.14
2022-09-24T05:15:50.308Z,1005.16
2022-09-24T05:16:50.244Z,1005.15
2022-09-24T05:17:50.227Z,1005.19
2022-09-24T05:18:50.203Z,1005.16
2022-09-24T05:19:50.193Z,1005.19
2022-09-24T05:20:50.170Z,1005.21
2022-09-24T05:21:50.149Z,1005.19
2022-09-24T05:22:50.137Z,1005.20
2022-09-24T05:23:50.109Z,1005.16
2022-09-24T05:24:50.117Z,1005.19
2022-09-24T05:25:50.074Z,1005.20
2022-09-24T05:26:50.057Z,1005.20
2022-09-24T05:27:50.038Z,1005.22
2022-09-24T05:28:50.023Z,1005.24
2022-09-24T05:29:50.006Z,1005.22
2022-09-24T05:30:50.035Z,1005.23
2022-09-24T05:31:50.045Z,1005.25
2022-09-24T05:32:49.945Z,1005.24
2022-09-24T05:33:49.928Z,1005.23
2022-09-24T05:34:49.911Z,1005.24
2022-09-24T05:35:49.895Z,1005.23
2022-09-24T05:36:49.873Z,1005.25
2022-09-24T05:37:49.910Z,1005.23
2022-09-24T05:38:49.833Z,1005.25
2022-09-24T05:39:49.816Z,1005.22
2022-09-24T05:40:49.932Z,1005.22
2022-09-24T05:41:49.779Z,1005.25
2022-09-24T05:42:49.762Z,1005.26
2022-09-24T05:43:49.740Z,1005.25
2022-09-24T05:44:52.288Z,1005.27
2022-09-24T05:45:49.705Z,1005.28
2022-09-24T05:46:49.795Z,1005.28
2022-09-24T05:47:49.670Z,1005.30
2022-09-24T05:48:49.648Z,1005.30
2022-09-24T05:49:49.632Z,1005.32
2022-09-24T05:50:49.610Z,1005.30
2022-09-24T05:51:49.591Z,1005.29
2022-09-24T05:52:49.577Z,1005.29
2022-09-24T05:53:49.583Z,1005.26
2022-09-24T05:54:49.560Z,1005.27
2022-09-24T05:55:49.527Z,1005.28
2022-09-24T05:56:49.532Z,1005.27
2022-09-24T05:57:49.491Z,1005.29
2022-09-24T05:58:49.466Z,1005.28
2022-09-24T05:59:49.455Z,1005.25
2022-09-24T06:00:49.428Z,1005.28
2022-09-24T06:01:49.470Z,1005.29
2022-09-24T06:02:49.434Z,1005.28
2022-09-24T06:03:49.371Z,1005.26
2022-09-24T06:04:49.351Z,1005.28
2022-09-24T06:05:49.338Z,1005.27
2022-09-24T06:06:49.313Z,1005.26
2022-09-24T06:07:49.295Z,1005.27
2022-09-24T06:08:49.279Z,1005.27
2022-09-24T06:09:49.259Z,1005.27
2022-09-24T06:10:49.240Z,1005.24
2022-09-24T06:11:49.232Z,1005.28
2022-09-24T06:12:49.227Z,1005.26
2022-09-24T06:13:49.187Z,1005.28
2022-09-24T06:14:49.165Z,1005.32
2022-09-24T06:15:49.230Z,1005.30
2022-09-24T06:16:49.133Z,1005.33
2022-09-24T06:17:49.132Z,1005.32
2022-09-24T06:18:49.093Z,1005.33
2022-09-24T06:19:49.076Z,1005.31
2022-09-24T06:20:49.058Z,1005.32
2022-09-24T06:21:49.040Z,1005.31
2022-09-24T06:22:49.024Z,1005.35
2022-09-24T06:23:49.003Z,1005.32
2022-09-24T06:24:48.990Z,1005.33
2022-09-24T06:25:48.961Z,1005.32
2022-09-24T06:26:48.945Z,1005.34
2022-09-24T06:27:48.929Z,1005.32
2022-09-24T06:28:49.263Z,1005.33
2022-09-24T06:29:48.892Z,1005.33
2022-09-24T06:30:48.877Z,1005.34
2022-09-24T06:31:48.965Z,1005.33
2022-09-24T06:32:48.834Z,1005.36
2022-09-24T06:33:48.816Z,1005.35
2022-09-24T06:34:48.797Z,1005.35
2022-09-24T06:35:48.777Z,1005.36
2022-09-24T06:36:48.768Z,1005.36
2022-09-24T06:37:48.748Z,1005.37
2022-09-24T06:38:48.722Z,1005.38
2022-09-24T06:39:48.705Z,1005.40
2022-09-24T06:40:48.785Z,1005.35
2022-09-24T06:41:48.668Z,1005.36
2022-09-24T06:42:48.649Z,1005.39
2022-09-24T06:43:48.632Z,1005.38
2022-09-24T06:44:48.635Z,1005.40
2022-09-24T06:45:48.591Z,1005.40
2022-09-24T06:46:48.676Z,1005.40
2022-09-24T06:47:48.561Z,1005.42
2022-09-24T06:48:48.540Z,1005.44
2022-09-24T06:49:48.521Z,1005.42
2022-09-24T06:50:48.503Z,1005.42
2022-09-24T06:51:48.492Z,1005.43
2022-09-24T06:52:48.465Z,1005.45
2022-09-24T06:53:48.453Z,1005.44
2022-09-24T06:54:48.429Z,1005.44
2022-09-24T06:55:48.416Z,1005.44
2022-09-24T06:56:48.395Z,1005.44
2022-09-24T06:57:48.382Z,1005.44
2022-09-24T06:58:48.359Z,1005.42
2022-09-24T06:59:48.338Z,1005.43
2022-09-24T07:00:48.398Z,1005.43
2022-09-24T07:01:48.392Z,1005.42
2022-09-24T07:02:48.283Z,1005.47
2022-09-24T07:03:48.265Z,1005.46
2022-09-24T07:04:48.244Z,1005.49
2022-09-24T07:05:48.229Z,1005.46
2022-09-24T07:06:48.207Z,1005.47
2022-09-24T07:07:48.190Z,1005.51
2022-09-24T07:08:48.174Z,1005.50
2022-09-24T07:09:48.157Z,1005.51
2022-09-24T07:10:48.140Z,1005.50
2022-09-24T07:11:48.120Z,1005.52
2022-09-24T07:12:48.101Z,1005.52
2022-09-24T07:13:48.084Z,1005.51
2022-09-24T07:14:48.063Z,1005.53
2022-09-24T07:15:48.072Z,1005.52
2022-09-24T07:16:48.048Z,1005.51
2022-09-24T07:17:48.008Z,1005.54
2022-09-24T07:18:47.993Z,1005.51
2022-09-24T07:19:47.975Z,1005.55
2022-09-24T07:20:47.953Z,1005.51
2022-09-24T07:21:47.940Z,1005.51
2022-09-24T07:22:47.918Z,1005.52
2022-09-24T07:23:47.904Z,1005.48
2022-09-24T07:24:47.886Z,1005.50
2022-09-24T07:25:47.867Z,1005.46
2022-09-24T07:26:47.855Z,1005.46
2022-09-24T07:27:47.830Z,1005.51
2022-09-24T07:28:47.812Z,1005.50
2022-09-24T07:29:47.797Z,1005.51
2022-09-24T07:30:47.780Z,1005.51
2022-09-24T07:31:47.864Z,1005.50
2022-09-24T07:32:47.760Z,1005.56
2022-09-24T07:33:47.730Z,1005.55
2022-09-24T07:34:47.705Z,1005.60
2022-09-24T07:35:47.690Z,1005.59
2022-09-24T07:36:47.674Z,1005.62
2022-09-24T07:37:47.655Z,1005.60
2022-09-24T07:38:47.648Z,1005.62
2022-09-24T07:39:47.622Z,1005.65
2022-09-24T07:40:47.723Z,1005.63
2022-09-24T07:41:47.581Z,1005.65
2022-09-24T07:42:47.563Z,1005.65
2022-09-24T07:43:47.547Z,1005.68
2022-09-24T07:44:47.532Z,1005.67
2022-09-24T07:45:47.510Z,1005.68
2022-09-24T07:46:47.561Z,1005.65
2022-09-24T07:47:47.483Z,1005.66
2022-09-24T07:48:47.564Z,1005.68
2022-09-24T07:49:47.443Z,1005.69
2022-09-24T07:50:47.421Z,1005.71
2022-09-24T07:51:47.414Z,1005.70
2022-09-24T07:52:47.386Z,1005.72
2022-09-24T07:53:47.373Z,1005.69
2022-09-24T07:54:47.353Z,1005.68
2022-09-24T07:55:47.337Z,1005.72
2022-09-24T07:56:47.321Z,1005.75
2022-09-24T07:57:47.301Z,1005.73
2022-09-24T07:58:47.283Z,1005.72
2022-09-24T07:59:47.266Z,1005.75
2022-09-24T08:00:47.247Z,1005.74
2022-09-24T08:01:47.251Z,1005.78
2022-09-24T08:02:47.212Z,1005.75
2022-09-24T08:03:47.321Z,1005.79
2022-09-24T08:04:47.200Z,1005.76
2022-09-24T08:05:47.161Z,1005.78
2022-09-24T08:06:47.807Z,1005.80
2022-09-24T08:07:47.129Z,1005.83
2022-09-24T08:08:47.106Z,1005.82
2022-09-24T08:09:47.094Z,1005.81
2022-09-24T08:10:47.075Z,1005.83
2022-09-24T08:11:47.059Z,1005.86
2022-09-24T08:12:47.038Z,1005.84
2022-09-24T08:13:47.024Z,1005.86
2022-09-24T08:14:47.007Z,1005.86
2022-09-24T08:15:47.057Z,1005.87
2022-09-24T08:16:46.973Z,1005.85
2022-09-24T08:17:46.952Z,1005.84
2022-09-24T08:18:46.934Z,1005.86
2022-09-24T08:19:46.917Z,1005.90
2022-09-24T08:20:46.921Z,1005.91
2022-09-24T08:21:46.880Z,1005.93
2022-09-24T08:22:46.863Z,1005.90
2022-09-24T08:23:46.846Z,1005.92
2022-09-24T08:24:46.835Z,1005.94
2022-09-24T08:25:46.814Z,1005.97
2022-09-24T08:26:46.795Z,1005.98
2022-09-24T08:27:46.779Z,1005.98
2022-09-24T08:28:46.769Z,1005.97
2022-09-24T08:29:46.750Z,1005.99
2022-09-24T08:30:46.806Z,1005.95
2022-09-24T08:31:46.758Z,1006.01
2022-09-24T08:32:46.691Z,1006.01
2022-09-24T08:33:46.672Z,1006.00
2022-09-24T08:34:46.655Z,1006.02
2022-09-24T08:35:46.637Z,1006.03
2022-09-24T08:36:46.647Z,1006.05
2022-09-24T08:37:46.607Z,1006.03
2022-09-24T08:38:46.589Z,1006.07
2022-09-24T08:39:46.575Z,1006.06
2022-09-24T08:40:46.667Z,1006.00
2022-09-24T08:41:46.549Z,1006.04
2022-09-24T08:42:46.526Z,1006.03
2022-09-24T08:43:46.506Z,1006.02
2022-09-24T08:44:46.499Z,1006.02
2022-09-24T08:45:46.470Z,1006.04
2022-09-24T08:46:46.590Z,1006.07
2022-09-24T08:47:46.440Z,1006.06
2022-09-24T08:48:46.429Z,1006.07
2022-09-24T08:49:46.402Z,1006.05
2022-09-24T08:50:46.390Z,1006.09
2022-09-24T08:51:46.373Z,1006.09
2022-09-24T08:52:46.459Z,1006.10
2022-09-24T08:53:46.337Z,1006.10
2022-09-24T08:54:46.320Z,1006.10
2022-09-24T08:55:46.308Z,1006.07
2022-09-24T08:56:46.291Z,1006.08
2022-09-24T08:57:46.270Z,1006.12
2022-09-24T08:58:46.254Z,1006.10
2022-09-24T08:59:46.237Z,1006.10
2022-09-24T09:00:46.222Z,1006.14
2022-09-24T09:01:46.358Z,1006.11
2022-09-24T09:02:46.266Z,1006.07
2022-09-24T09:03:46.172Z,1006.08
2022-09-24T09:04:46.155Z,1006.10
2022-09-24T09:05:49.510Z,1006.09
2022-09-24T09:06:46.127Z,1006.05
2022-09-24T09:07:46.105Z,1006.12
2022-09-24T09:09:05.708Z,1006.15
2022-09-24T09:09:46.074Z,1006.11
2022-09-24T09:10:46.057Z,1006.13
2022-09-24T09:11:46.044Z,1006.13
2022-09-24T09:12:46.026Z,1006.11
2022-09-24T09:13:46.006Z,1006.11
2022-09-24T09:14:46.001Z,1006.09
2022-09-24T09:15:46.041Z,1006.09
2022-09-24T09:16:45.958Z,1006.12
2022-09-24T09:17:45.948Z,1006.12
2022-09-24T09:18:45.931Z,1006.07
2022-09-24T09:19:49.185Z,1006.11
2022-09-24T09:20:45.915Z,1006.11
2022-09-24T09:21:45.886Z,1006.07
2022-09-24T09:22:45.889Z,1006.09
2022-09-24T09:23:45.848Z,1006.11
2022-09-24T09:24:45.854Z,1006.15
2022-09-24T09:25:45.814Z,1006.16
2022-09-24T09:26:45.799Z,1006.19
2022-09-24T09:27:45.785Z,1006.20
2022-09-24T09:28:45.775Z,1006.18
2022-09-24T09:29:45.752Z,1006.20
2022-09-24T09:30:45.737Z,1006.18
2022-09-24T09:31:45.831Z,1006.24
2022-09-24T09:32:45.711Z,1006.22
2022-09-24T09:33:45.692Z,1006.25
2022-09-24T09:34:45.679Z,1006.21
2022-09-24T09:35:45.658Z,1006.24
2022-09-24T09:36:45.650Z,1006.22
2022-09-24T09:37:45.631Z,1006.22
2022-09-24T09:38:45.617Z,1006.23
2022-09-24T09:39:45.599Z,1006.25
2022-09-24T09:40:45.639Z,1006.26
2022-09-24T09:41:45.569Z,1006.23
2022-09-24T09:42:45.564Z,1006.24
2022-09-24T09:43:45.539Z,1006.27
2022-09-24T09:44:45.524Z,1006.26
2022-09-24T09:45:45.510Z,1006.23
2022-09-24T09:46:45.588Z,1006.29
2022-09-24T09:47:45.486Z,1006.28
2022-09-24T09:48:45.469Z,1006.24
2022-09-24T09:49:45.456Z,1006.23
2022-09-24T09:50:45.436Z,1006.22
2022-09-24T09:51:45.419Z,1006.19
2022-09-24T09:52:45.409Z,1006.20
2022-09-24T09:53:45.390Z,1006.22
2022-09-24T09:54:45.375Z,1006.24
2022-09-24T09:55:45.361Z,1006.23
2022-09-24T09:56:45.384Z,1006.25
2022-09-24T09:57:45.326Z,1006.22
2022-09-24T09:58:45.315Z,1006.23
2022-09-24T09:59:45.303Z,1006.21
2022-09-24T10:00:45.283Z,1006.22
2022-09-24T10:01:45.331Z,1006.21
2022-09-24T10:02:45.357Z,1006.23
2022-09-24T10:03:45.345Z,1006.19
2022-09-24T10:04:45.228Z,1006.23
2022-09-24T10:05:45.215Z,1006.21
2022-09-24T10:06:45.198Z,1006.24
2022-09-24T10:07:45.178Z,1006.26
2022-09-24T10:08:45.166Z,1006.21
2022-09-24T10:09:45.150Z,1006.22
2022-09-24T10:10:45.132Z,1006.25
2022-09-24T10:11:45.119Z,1006.24
2022-09-24T10:12:45.126Z,1006.19
2022-09-24T10:13:45.088Z,1006.17
2022-09-24T10:14:45.072Z,1006.20
2022-09-24T10:15:45.699Z,1006.22
2022-09-24T10:16:45.129Z,1006.20
2022-09-24T10:17:45.037Z,1006.19
2022-09-24T10:18:45.013Z,1006.20
2022-09-24T10:19:44.999Z,1006.22
2022-09-24T10:20:44.987Z,1006.14
2022-09-24T10:21:44.971Z,1006.18
2022-09-24T10:22:44.954Z,1006.20
2022-09-24T10:23:44.935Z,1006.22
2022-09-24T10:24:44.922Z,1006.18
2022-09-24T10:25:44.905Z,1006.21
2022-09-24T10:26:45.660Z,1006.18
2022-09-24T10:27:44.877Z,1006.17
2022-09-24T10:28:44.880Z,1006.18
2022-09-24T10:29:44.842Z,1006.20
2022-09-24T10:30:44.833Z,1006.20
2022-09-24T10:31:44.859Z,1006.20
2022-09-24T10:32:44.809Z,1006.15
2022-09-24T10:33:44.785Z,1006.17
2022-09-24T10:34:44.774Z,1006.17
2022-09-24T10:35:44.756Z,1006.14
2022-09-24T10:36:44.742Z,1006.11
2022-09-24T10:37:44.723Z,1006.17
2022-09-24T10:38:44.719Z,1006.19
2022-09-24T10:39:44.701Z,1006.11
2022-09-24T10:40:44.729Z,1006.13
2022-09-24T10:41:44.669Z,1006.13
2022-09-24T10:42:44.648Z,1006.16
2022-09-24T10:43:44.639Z,1006.14
2022-09-24T10:44:48.064Z,1006.16
2022-09-24T10:45:44.613Z,1006.24
2022-09-24T10:46:44.624Z,1006.21
2022-09-24T10:47:44.569Z,1006.15
2022-09-24T10:48:44.557Z,1006.17
2022-09-24T10:49:44.545Z,1006.20
2022-09-24T10:50:44.531Z,1006.18
2022-09-24T10:51:44.517Z,1006.17
2022-09-24T10:52:44.502Z,1006.14
2022-09-24T10:53:44.481Z,1006.16
2022-09-24T10:54:44.469Z,1006.17
2022-09-24T10:55:44.453Z,1006.20
2022-09-24T10:56:46.545Z,1006.17
2022-09-24T10:57:44.426Z,1006.17
2022-09-24T10:58:44.408Z,1006.15
2022-09-24T10:59:44.397Z,1006.19
2022-09-24T11:00:44.403Z,1006.22
2022-09-24T11:01:44.432Z,1006.20
2022-09-24T11:02:44.419Z,1006.21
2022-09-24T11:03:44.334Z,1006.19
2022-09-24T11:04:44.319Z,1006.20
2022-09-24T11:05:44.306Z,1006.22
2022-09-24T11:06:44.291Z,1006.23
2022-09-24T11:07:44.276Z,1006.22
2022-09-24T11:08:44.257Z,1006.24
2022-09-24T11:09:44.240Z,1006.22
2022-09-24T11:10:44.233Z,1006.20
2022-09-24T11:11:44.211Z,1006.25
2022-09-24T11:12:44.199Z,1006.21
2022-09-24T11:13:46.872Z,1006.22
2022-09-24T11:14:44.173Z,1006.19
2022-09-24T11:15:44.184Z,1006.17
2022-09-24T11:16:44.157Z,1006.17
2022-09-24T11:17:44.119Z,1006.16
2022-09-24T11:18:44.103Z,1006.12
2022-09-24T11:19:44.089Z,1006.20
2022-09-24T11:20:44.075Z,1006.19
2022-09-24T11:21:44.057Z,1006.14
2022-09-24T11:22:44.066Z,1006.16
2022-09-24T11:23:44.028Z,1006.16
2022-09-24T11:24:44.010Z,1006.16
2022-09-24T11:25:44.000Z,1006.14
2022-09-24T11:26:43.977Z,1006.16
2022-09-24T11:27:43.961Z,1006.17
2022-09-24T11:28:43.956Z,1006.16
2022-09-24T11:29:43.928Z,1006.20
2022-09-24T11:30:43.925Z,1006.16
2022-09-24T11:31:43.968Z,1006.17
2022-09-24T11:32:43.901Z,1006.17
2022-09-24T11:33:43.868Z,1006.14
2022-09-24T11:34:43.856Z,1006.15
2022-09-24T11:35:43.838Z,1006.14
2022-09-24T11:36:43.822Z,1006.10
2022-09-24T11:37:43.806Z,1006.09
2022-09-24T11:38:43.792Z,1006.12
2022-09-24T11:39:43.778Z,1006.10
2022-09-24T11:40:43.901Z,1006.10
2022-09-24T11:41:43.770Z,1006.10
2022-09-24T11:42:43.726Z,1006.06
2022-09-24T11:43:43.711Z,1006.08
2022-09-24T11:44:43.698Z,1006.11
2022-09-24T11:45:43.680Z,1006.12
2022-09-24T11:46:43.734Z,1006.09
2022-09-24T11:47:43.653Z,1006.07
2022-09-24T11:48:43.661Z,1006.09
2022-09-24T11:49:43.619Z,1006.07
2022-09-24T11:50:47.367Z,1006.06
2022-09-24T11:51:43.591Z,1006.07
2022-09-24T11:52:43.574Z,1006.11
2022-09-24T11:53:43.551Z,1006.09
2022-09-24T11:54:43.545Z,1006.08
2022-09-24T11:55:43.522Z,1006.08
2022-09-24T11:56:43.508Z,1006.08
2022-09-24T11:57:43.490Z,1006.08
2022-09-24T11:58:43.476Z,1006.04
2022-09-24T11:59:43.460Z,1006.03
2022-09-24T12:00:43.448Z,1006.04
2022-09-24T12:01:43.469Z,1006.05
2022-09-24T12:02:43.468Z,1006.06
2022-09-24T12:03:43.399Z,1006.06
2022-09-24T12:04:43.405Z,1006.07
2022-09-24T12:05:43.366Z,1006.07